createdAt,value
2019-01-05T00:01:00.717Z,0.90
2019-01-05T00:03:43.394Z,0.57
2019-01-05T00:07:24.804Z,0.90
2019-01-05T00:09:09.129Z,0.60
2019-01-05T00:11:46.551Z,0.60
2019-01-05T00:13:30.396Z,0.73
2019-01-05T00:15:09.354Z,1.63
2019-01-05T00:17:48.868Z,0.70
2019-01-05T00:20:24.234Z,0.70
2019-01-05T00:22:22.053Z,0.83
2019-01-05T00:24:01.051Z,0.60
2019-01-05T00:26:09.267Z,0.77
2019-01-05T00:27:53.163Z,1.03
2019-01-05T00:29:39.915Z,0.63
2019-01-05T00:31:19.701Z,0.60
2019-01-05T00:33:07.589Z,0.60
2019-01-05T00:34:58.835Z,0.80
2019-01-05T00:36:55.632Z,1.13
2019-01-05T00:38:40.540Z,0.73
2019-01-05T00:40:34.638Z,0.63
2019-01-05T00:42:19.006Z,0.80
2019-01-05T00:44:01.926Z,0.70
2019-01-05T00:45:44.927Z,0.67
2019-01-05T00:47:24.536Z,0.50
2019-01-05T00:51:07.196Z,0.70
2019-01-05T00:52:50.986Z,1.07
2019-01-05T00:54:30.974Z,0.70
2019-01-05T00:56:13.880Z,0.70
2019-01-05T00:57:56.316Z,0.63
2019-01-05T01:03:56.114Z,0.70
2019-01-05T01:05:39.106Z,0.67
2019-01-05T01:07:44.529Z,0.70
2019-01-05T01:09:34.144Z,0.70
2019-01-05T01:11:20.216Z,0.60
2019-01-05T01:13:13.262Z,0.60
2019-01-05T01:15:00.528Z,0.60
2019-01-05T01:16:44.450Z,0.70
2019-01-05T01:22:46.407Z,0.50
2019-01-05T01:25:24.430Z,0.57
2019-01-05T01:28:03.187Z,0.93
2019-01-05T01:29:50.011Z,0.77
2019-01-05T01:31:29.986Z,0.70
2019-01-05T01:33:10.812Z,0.70
2019-01-05T01:36:59.998Z,0.50
2019-01-05T01:39:05.094Z,0.60
2019-01-05T01:40:43.214Z,0.60
2019-01-05T01:42:27.017Z,0.70
2019-01-05T01:44:04.811Z,0.70
2019-01-05T01:45:45.512Z,0.60
2019-01-05T01:47:42.495Z,1.20
2019-01-05T01:50:20.393Z,0.70
2019-01-05T01:52:26.604Z,0.80
2019-01-05T01:55:02.388Z,0.70
2019-01-05T01:56:43.606Z,0.70
2019-01-05T01:58:32.665Z,0.60
2019-01-05T02:00:27.067Z,0.60
2019-01-05T02:02:07.808Z,0.70
2019-01-05T02:03:59.818Z,0.83
2019-01-05T02:05:39.749Z,0.67
2019-01-05T02:07:35.732Z,0.70
2019-01-05T02:09:47.142Z,0.70
2019-01-05T02:12:06.508Z,0.70
2019-01-05T02:15:52.280Z,0.60
2019-01-05T02:18:15.827Z,0.87
2019-01-05T02:22:06.238Z,1.60
2019-01-05T02:24:12.245Z,0.80
2019-01-05T02:26:24.649Z,0.57
2019-01-05T02:28:28.942Z,0.50
2019-01-05T02:31:30.286Z,0.60
2019-01-05T02:33:38.960Z,0.77
2019-01-05T02:36:34.090Z,0.87
2019-01-05T02:39:07.850Z,0.97
2019-01-05T02:42:18.549Z,0.80
2019-01-05T02:45:16.704Z,0.70
2019-01-05T02:47:21.969Z,1.83
2019-01-05T02:49:44.490Z,0.87
2019-01-05T02:51:42.232Z,0.60
2019-01-05T02:55:40.055Z,1.13
2019-01-05T02:58:51.369Z,2.73
2019-01-05T03:00:48.964Z,1.10
2019-01-05T03:02:42.046Z,2.00
2019-01-05T03:04:49.204Z,2.03
2019-01-05T03:07:39.525Z,0.80
2019-01-05T03:11:46.929Z,0.67
2019-01-05T03:16:42.544Z,1.50
2019-01-05T03:20:43.307Z,1.10
2019-01-05T03:24:54.297Z,2.60
2019-01-05T03:26:47.758Z,1.00
2019-01-05T03:31:37.017Z,0.90
2019-01-05T03:33:47.375Z,2.33
2019-01-05T03:37:41.202Z,0.77
2019-01-05T03:39:35.129Z,1.93
2019-01-05T03:41:45.516Z,3.77
2019-01-05T03:44:38.378Z,5.40
2019-01-05T03:46:43.387Z,3.57
2019-01-05T03:51:11.347Z,1.80
2019-01-05T03:53:03.870Z,2.07
2019-01-05T03:55:58.508Z,1.63
2019-01-05T03:57:56.044Z,1.33
2019-01-05T04:00:09.596Z,2.13
2019-01-05T04:04:05.733Z,1.00
2019-01-05T04:06:00.743Z,1.00
2019-01-05T04:09:52.159Z,3.30
2019-01-05T04:12:51.340Z,1.70
2019-01-05T04:17:55.257Z,2.23
2019-01-05T04:19:47.265Z,1.33
2019-01-05T04:21:37.388Z,2.93
2019-01-05T04:23:31.259Z,1.53
2019-01-05T04:25:24.305Z,1.50
2019-01-05T04:27:28.061Z,1.60
2019-01-05T04:29:23.119Z,2.40
2019-01-05T04:32:14.118Z,1.47
2019-01-05T04:36:05.546Z,2.70
2019-01-05T04:38:03.830Z,1.40
2019-01-05T04:39:54.903Z,1.70
2019-01-05T04:44:28.419Z,1.83
2019-01-05T04:46:27.011Z,1.87
2019-01-05T04:48:24.182Z,3.37
2019-01-05T04:51:10.269Z,1.30
2019-01-05T04:54:02.190Z,1.77
2019-01-05T04:56:00.066Z,3.13
2019-01-05T04:58:10.517Z,1.90
2019-01-05T05:01:04.486Z,2.57
2019-01-05T05:03:55.610Z,2.40
2019-01-05T05:06:51.733Z,1.93
2019-01-05T05:09:52.764Z,2.30
2019-01-05T05:11:44.712Z,6.40
2019-01-05T05:14:36.566Z,4.03
2019-01-05T05:16:34.532Z,1.43
2019-01-05T05:19:25.491Z,2.23
2019-01-05T05:22:18.272Z,3.13
2019-01-05T05:24:13.160Z,3.27
2019-01-05T05:27:07.061Z,5.30
2019-01-05T05:28:59.254Z,5.33
2019-01-05T05:31:46.667Z,2.97
2019-01-05T05:34:40.502Z,4.37
2019-01-05T05:36:34.539Z,5.03
2019-01-05T05:40:24.267Z,3.47
2019-01-05T05:43:22.216Z,3.13
2019-01-05T05:45:18.420Z,4.63
2019-01-05T05:47:26.482Z,4.37
2019-01-05T05:49:23.374Z,6.17
2019-01-05T05:51:43.145Z,2.73
2019-01-05T05:54:37.957Z,4.47
2019-01-05T05:57:04.004Z,3.73
2019-01-05T05:59:01.070Z,4.53
2019-01-05T06:01:10.359Z,4.00
2019-01-05T06:04:08.739Z,5.47
2019-01-05T06:06:00.775Z,4.00
2019-01-05T06:07:54.977Z,4.83
2019-01-05T06:10:53.780Z,4.07
2019-01-05T06:13:43.607Z,3.37
2019-01-05T06:15:45.742Z,4.37
2019-01-05T06:17:56.838Z,4.37
2019-01-05T06:19:56.952Z,4.50
2019-01-05T06:25:47.838Z,2.07
2019-01-05T06:27:38.570Z,1.97
2019-01-05T06:29:34.343Z,3.80
2019-01-05T06:32:43.358Z,7.13
2019-01-05T06:35:39.494Z,2.00
2019-01-05T06:39:35.743Z,6.17
2019-01-05T06:41:26.529Z,5.03
2019-01-05T06:46:31.302Z,2.33
2019-01-05T06:49:21.723Z,1.50
2019-01-05T06:52:47.557Z,1.30
2019-01-05T06:56:57.990Z,1.70
2019-01-05T07:01:52.495Z,2.30
2019-01-05T07:04:00.816Z,1.20
2019-01-05T07:07:51.447Z,5.03
2019-01-05T07:10:50.413Z,1.27
2019-01-05T07:12:41.393Z,6.20
2019-01-05T07:15:50.613Z,3.30
2019-01-05T07:17:44.572Z,4.90
2019-01-05T07:23:17.065Z,1.97
2019-01-05T07:25:39.248Z,3.77
2019-01-05T07:27:45.624Z,5.53
2019-01-05T07:31:40.129Z,2.17
2019-01-05T07:36:42.509Z,5.40
2019-01-05T07:39:40.263Z,3.70
2019-01-05T07:43:46.149Z,0.97
2019-01-05T07:46:43.797Z,4.50
2019-01-05T07:49:36.509Z,1.33
2019-01-05T07:52:27.136Z,2.93
2019-01-05T07:55:16.971Z,1.20
2019-01-05T07:57:07.218Z,5.17
2019-01-05T08:01:12.680Z,6.40
2019-01-05T08:04:11.140Z,3.07
2019-01-05T08:10:12.753Z,7.73
2019-01-05T08:14:12.310Z,2.60
2019-01-05T08:17:02.055Z,3.13
2019-01-05T08:18:55.196Z,1.20
2019-01-05T08:20:59.245Z,2.10
2019-01-05T08:22:56.185Z,1.70
2019-01-05T08:28:46.904Z,1.97
2019-01-05T08:30:38.908Z,1.80
2019-01-05T08:32:48.057Z,3.00
2019-01-05T08:36:47.734Z,4.60
2019-01-05T08:38:58.048Z,1.07
2019-01-05T08:40:56.371Z,1.97
2019-01-05T08:42:49.363Z,3.97
2019-01-05T08:44:46.495Z,2.13
2019-01-05T08:47:35.953Z,4.20
2019-01-05T08:49:41.020Z,1.83
2019-01-05T08:54:32.500Z,4.70
2019-01-05T08:57:00.295Z,1.00
2019-01-05T09:01:54.720Z,1.47
2019-01-05T09:03:52.780Z,4.37
2019-01-05T09:06:49.327Z,2.30
2019-01-05T09:08:42.682Z,2.20
2019-01-05T09:11:41.548Z,2.10
2019-01-05T09:14:30.020Z,2.23
2019-01-05T09:16:22.925Z,2.20
2019-01-05T09:18:54.674Z,3.53
2019-01-05T09:23:01.331Z,2.37
2019-01-05T09:27:40.529Z,2.97
2019-01-05T09:30:28.267Z,1.53
2019-01-05T09:33:32.260Z,3.37
2019-01-05T09:37:27.842Z,2.97
2019-01-05T09:39:22.021Z,1.90
2019-01-05T09:41:41.025Z,2.50
2019-01-05T09:44:07.717Z,2.93
2019-01-05T09:46:30.357Z,2.50
2019-01-05T09:51:25.870Z,7.07
2019-01-05T09:53:17.895Z,2.37
2019-01-05T09:55:10.562Z,1.80
2019-01-05T09:59:04.210Z,6.23
2019-01-05T10:02:29.389Z,2.97
2019-01-05T10:04:51.529Z,0.93
2019-01-05T10:08:12.840Z,4.03
2019-01-05T10:10:03.457Z,1.33
2019-01-05T10:14:05.100Z,3.27
2019-01-05T10:15:57.281Z,3.57
2019-01-05T10:17:49.200Z,2.37
2019-01-05T10:20:38.902Z,6.07
2019-01-05T10:22:45.326Z,1.50
2019-01-05T10:27:45.200Z,5.53
2019-01-05T10:30:08.388Z,5.20
2019-01-05T10:31:59.444Z,3.13
2019-01-05T10:34:00.727Z,4.53
2019-01-05T10:37:58.453Z,3.80
2019-01-05T10:40:34.363Z,2.00
2019-01-05T10:43:32.030Z,2.53
2019-01-05T10:45:31.114Z,3.73
2019-01-05T10:49:26.535Z,4.03
2019-01-05T10:51:23.676Z,5.30
2019-01-05T10:55:13.921Z,4.37
2019-01-05T10:58:27.616Z,2.20
2019-01-05T11:01:11.243Z,2.87
2019-01-05T11:03:10.449Z,3.40
2019-01-05T11:05:17.405Z,4.17
2019-01-05T11:07:25.539Z,2.33
2019-01-05T11:09:32.425Z,3.43
2019-01-05T11:11:28.346Z,2.40
2019-01-05T11:13:49.686Z,2.53
2019-01-05T11:17:55.341Z,2.03
2019-01-05T11:19:59.196Z,3.53
2019-01-05T11:22:52.134Z,2.50
2019-01-05T11:24:50.413Z,2.03
2019-01-05T11:26:42.704Z,3.23
2019-01-05T11:28:45.565Z,3.20
2019-01-05T11:32:44.015Z,4.53
2019-01-05T11:36:50.962Z,1.00
2019-01-05T11:40:43.304Z,2.77
2019-01-05T11:43:11.986Z,2.87
2019-01-05T11:46:05.485Z,5.07
2019-01-05T11:48:56.119Z,2.53
2019-01-05T11:52:30.486Z,2.27
2019-01-05T11:54:55.172Z,2.83
2019-01-05T11:57:22.549Z,5.00
2019-01-05T12:03:56.484Z,1.67
2019-01-05T12:07:56.004Z,2.67
2019-01-05T12:10:53.745Z,7.60
2019-01-05T12:17:38.436Z,5.90
2019-01-05T12:19:54.751Z,1.23
2019-01-05T12:23:59.275Z,1.80
2019-01-05T12:27:00.208Z,3.60
2019-01-05T12:29:59.560Z,2.67
2019-01-05T12:31:53.745Z,2.50
2019-01-05T12:35:53.604Z,3.27
2019-01-05T12:38:47.369Z,3.70
2019-01-05T12:42:51.121Z,6.63
2019-01-05T12:46:08.386Z,7.13
2019-01-05T12:48:21.102Z,7.73
2019-01-05T12:52:17.473Z,6.33
2019-01-05T12:56:12.431Z,10.10
2019-01-05T13:01:08.982Z,9.27
2019-01-05T13:04:04.804Z,7.73
2019-01-05T13:08:14.510Z,11.40
2019-01-05T13:12:21.418Z,13.93
2019-01-05T13:14:34.744Z,10.17
2019-01-05T13:17:11.606Z,10.33
2019-01-05T13:19:12.969Z,9.67
2019-01-05T13:24:27.392Z,8.70
2019-01-05T13:26:19.271Z,13.03
2019-01-05T13:29:21.808Z,8.17
2019-01-05T13:31:13.826Z,6.13
2019-01-05T13:35:11.183Z,6.70
2019-01-05T13:37:08.167Z,7.23
2019-01-05T13:39:33.776Z,6.63
2019-01-05T13:44:26.170Z,8.33
2019-01-05T13:50:25.003Z,6.43
2019-01-05T13:53:21.549Z,3.13
2019-01-05T13:55:34.304Z,4.57
2019-01-05T13:57:17.798Z,5.83
2019-01-05T13:59:14.303Z,43.97
2019-01-05T14:00:54.601Z,54.70
2019-01-05T14:02:55.048Z,27.30
2019-01-05T14:04:37.186Z,40.57
2019-01-05T14:06:32.937Z,21.77
2019-01-05T14:09:19.057Z,33.07
2019-01-05T14:12:00.371Z,30.57
2019-01-05T14:13:59.577Z,16.40
2019-01-05T14:16:43.539Z,8.63
2019-01-05T14:18:28.564Z,7.10
2019-01-05T14:20:11.906Z,6.50
2019-01-05T14:22:45.339Z,5.10
2019-01-05T14:25:24.088Z,7.03
2019-01-05T14:27:04.966Z,4.17
2019-01-05T14:28:47.795Z,4.03
2019-01-05T14:31:27.745Z,3.10
2019-01-05T14:33:11.489Z,5.27
2019-01-05T14:34:50.322Z,5.77
2019-01-05T14:37:28.048Z,4.17
2019-01-05T14:39:06.897Z,4.20
2019-01-05T14:41:03.007Z,3.17
2019-01-05T14:44:48.661Z,4.73
2019-01-05T14:46:27.418Z,3.23
2019-01-05T14:48:06.333Z,3.67
2019-01-05T14:49:59.446Z,3.23
2019-01-05T14:51:38.467Z,2.10
2019-01-05T14:55:20.966Z,3.40
2019-01-05T14:57:01.816Z,2.50
2019-01-05T14:58:40.673Z,5.17
2019-01-05T15:01:24.577Z,2.53
2019-01-05T15:04:09.191Z,1.93
2019-01-05T15:06:51.385Z,2.93
2019-01-05T15:09:32.856Z,2.90
2019-01-05T15:11:11.543Z,3.30
2019-01-05T15:12:50.404Z,2.57
2019-01-05T15:15:27.011Z,2.50
2019-01-05T15:17:09.283Z,5.13
2019-01-05T15:20:57.778Z,2.10
2019-01-05T15:23:34.180Z,1.87
2019-01-05T15:26:14.105Z,2.93
2019-01-05T15:27:56.965Z,2.90
2019-01-05T15:31:43.484Z,2.40
2019-01-05T15:33:22.292Z,2.13
2019-01-05T15:37:03.959Z,4.67
2019-01-05T15:38:42.700Z,4.80
2019-01-05T15:40:31.725Z,3.47
2019-01-05T15:43:07.839Z,3.77
2019-01-05T15:45:17.091Z,4.73
2019-01-05T15:46:56.051Z,4.87
2019-01-05T15:48:35.003Z,5.53
2019-01-05T15:51:17.018Z,5.07
2019-01-05T15:55:03.457Z,3.77
2019-01-05T15:56:42.323Z,4.13
2019-01-05T15:58:24.236Z,2.50
2019-01-05T16:00:33.567Z,4.53
2019-01-05T16:02:16.517Z,3.73
2019-01-05T16:04:01.501Z,3.50
2019-01-05T16:05:40.584Z,3.87
2019-01-05T16:07:19.416Z,2.63
2019-01-05T16:08:58.286Z,5.60
2019-01-05T16:11:38.289Z,4.40
2019-01-05T16:13:17.857Z,4.03
2019-01-05T16:17:00.554Z,2.40
2019-01-05T16:19:42.571Z,2.37
2019-01-05T16:21:54.081Z,2.93
2019-01-05T16:25:35.466Z,2.07
2019-01-05T16:27:49.302Z,2.10
2019-01-05T16:29:29.466Z,2.43
2019-01-05T16:31:18.779Z,3.67
2019-01-05T16:33:17.409Z,3.50
2019-01-05T16:35:00.236Z,1.67
2019-01-05T16:37:10.696Z,2.57
2019-01-05T16:38:49.671Z,3.37
2019-01-05T16:40:28.610Z,2.37
2019-01-05T16:42:11.072Z,5.17
2019-01-05T16:43:50.830Z,3.70
2019-01-05T16:45:33.649Z,2.97
2019-01-05T16:47:13.288Z,2.93
2019-01-05T16:48:55.934Z,1.83
2019-01-05T16:50:39.222Z,5.00
2019-01-05T16:52:20.405Z,2.10
2019-01-05T16:54:00.212Z,1.90
2019-01-05T16:55:40.083Z,2.07
2019-01-05T16:57:18.922Z,3.13
2019-01-05T16:58:57.604Z,2.10
2019-01-05T17:00:36.614Z,3.10
2019-01-05T17:02:28.148Z,2.10
2019-01-05T17:04:13.440Z,2.80
2019-01-05T17:05:56.670Z,2.27
2019-01-05T17:08:44.871Z,2.17
2019-01-05T17:12:33.991Z,3.80
2019-01-05T17:15:14.262Z,3.17
2019-01-05T17:18:55.708Z,2.80
2019-01-05T17:20:42.839Z,2.50
2019-01-05T17:24:28.606Z,2.27
2019-01-05T17:27:04.671Z,1.93
2019-01-05T17:28:44.722Z,3.23
2019-01-05T17:31:21.571Z,2.83
2019-01-05T17:33:04.344Z,6.20
2019-01-05T17:34:45.205Z,4.87
2019-01-05T17:36:24.611Z,2.03
2019-01-05T17:39:03.232Z,2.37
2019-01-05T17:40:57.046Z,4.73
2019-01-05T17:43:36.794Z,4.30
2019-01-05T17:45:23.042Z,2.73
2019-01-05T17:47:03.175Z,1.53
2019-01-05T17:48:43.838Z,4.57
2019-01-05T17:50:23.697Z,1.93
2019-01-05T17:52:35.830Z,3.07
2019-01-05T17:54:15.482Z,1.80
2019-01-05T17:56:02.854Z,2.40
2019-01-05T17:57:42.022Z,4.20
2019-01-05T17:59:36.172Z,2.60
2019-01-05T18:01:15.048Z,3.67
2019-01-05T18:03:54.845Z,5.57
2019-01-05T18:05:39.666Z,2.10
2019-01-05T18:07:30.553Z,2.27
2019-01-05T18:09:11.496Z,2.33
2019-01-05T18:10:56.445Z,3.87
2019-01-05T18:12:36.721Z,2.17
2019-01-05T18:14:15.665Z,2.03
2019-01-05T18:15:55.555Z,3.60
2019-01-05T18:18:38.083Z,3.60
2019-01-05T18:22:20.362Z,3.50
2019-01-05T18:23:59.251Z,2.30
2019-01-05T18:27:42.962Z,2.77
2019-01-05T18:29:21.862Z,2.97
2019-01-05T18:33:09.497Z,3.30
2019-01-05T18:34:52.205Z,2.77
2019-01-05T18:37:01.571Z,2.30
2019-01-05T18:38:57.634Z,3.80
2019-01-05T18:40:38.642Z,6.97
2019-01-05T18:42:18.388Z,7.43
2019-01-05T18:44:00.865Z,6.20
2019-01-05T18:47:46.956Z,6.00
2019-01-05T18:49:26.058Z,4.80
2019-01-05T18:53:08.709Z,3.60
2019-01-05T18:55:51.166Z,3.03
2019-01-05T18:58:38.768Z,4.67
2019-01-05T19:00:18.615Z,4.13
2019-01-05T19:01:57.372Z,3.10
2019-01-05T19:03:37.353Z,8.23
2019-01-05T19:05:17.844Z,4.27
2019-01-05T19:06:57.330Z,3.53
2019-01-05T19:08:37.049Z,4.57
2019-01-05T19:10:19.882Z,3.97
2019-01-05T19:12:09.996Z,4.07
2019-01-05T19:13:55.766Z,4.63
2019-01-05T19:15:40.531Z,3.83
2019-01-05T19:18:19.190Z,3.30
2019-01-05T19:19:58.237Z,6.03
2019-01-05T19:21:39.067Z,3.43
2019-01-05T19:23:17.687Z,3.27
2019-01-05T19:24:56.475Z,7.30
2019-01-05T19:26:39.540Z,4.33
2019-01-05T19:28:23.380Z,3.37
2019-01-05T19:30:10.830Z,6.47
2019-01-05T19:31:50.603Z,3.77
2019-01-05T19:35:35.031Z,7.47
2019-01-05T19:37:15.898Z,6.03
2019-01-05T19:38:54.789Z,3.57
2019-01-05T19:42:37.536Z,3.83
2019-01-05T19:44:17.380Z,5.13
2019-01-05T19:45:56.249Z,7.57
2019-01-05T19:48:33.790Z,3.63
2019-01-05T19:50:12.771Z,5.77
2019-01-05T19:52:49.082Z,6.00
2019-01-05T19:54:32.043Z,3.87
2019-01-05T19:56:41.207Z,6.50
2019-01-05T19:58:22.119Z,6.17
2019-01-05T20:00:01.449Z,6.47
2019-01-05T20:01:47.494Z,5.80
2019-01-05T20:03:30.408Z,5.90
2019-01-05T20:05:11.627Z,3.70
2019-01-05T20:07:05.709Z,3.60
2019-01-05T20:09:45.221Z,5.33
2019-01-05T20:11:30.023Z,5.63
2019-01-05T20:13:08.758Z,9.87
2019-01-05T20:16:56.154Z,5.37
2019-01-05T20:18:36.249Z,5.93
2019-01-05T20:20:14.293Z,6.77
2019-01-05T20:22:56.978Z,7.97
2019-01-05T20:24:34.929Z,7.40
2019-01-05T20:26:16.694Z,5.83
2019-01-05T20:28:12.600Z,6.00
2019-01-05T20:29:51.624Z,5.57
2019-01-05T20:32:32.332Z,5.53
2019-01-05T20:34:17.252Z,4.77
2019-01-05T20:35:56.723Z,6.87
2019-01-05T20:37:41.579Z,7.20
2019-01-05T20:39:22.270Z,6.40
2019-01-05T20:41:37.999Z,4.17
2019-01-05T20:45:23.130Z,5.00
2019-01-05T20:47:09.047Z,5.10
2019-01-05T20:49:00.144Z,4.37
2019-01-05T20:51:10.306Z,5.00
2019-01-05T20:53:02.449Z,3.30
2019-01-05T20:54:41.150Z,4.70
2019-01-05T20:58:26.716Z,5.27
2019-01-05T21:02:10.318Z,4.77
2019-01-05T21:05:54.396Z,3.87
2019-01-05T21:09:35.777Z,6.10
2019-01-05T21:11:15.402Z,4.30
2019-01-05T21:12:54.067Z,3.97
2019-01-05T21:14:45.100Z,3.83
2019-01-05T21:16:33.087Z,4.90
2019-01-05T21:18:12.070Z,8.87
2019-01-05T21:20:05.910Z,8.10
2019-01-05T21:21:44.033Z,5.47
2019-01-05T21:24:20.716Z,5.83
2019-01-05T21:26:02.499Z,8.00
2019-01-05T21:29:42.939Z,4.50
2019-01-05T21:33:27.917Z,4.43
2019-01-05T21:35:06.887Z,3.63
2019-01-05T21:37:02.014Z,4.47
2019-01-05T21:38:44.058Z,4.80
2019-01-05T21:41:21.571Z,3.80
2019-01-05T21:45:04.983Z,5.03
2019-01-05T21:46:43.789Z,5.83
2019-01-05T21:48:27.630Z,3.97
2019-01-05T21:50:08.676Z,3.33
2019-01-05T21:52:50.041Z,4.27
2019-01-05T21:54:29.899Z,4.30
2019-01-05T21:56:13.011Z,4.57
2019-01-05T21:57:51.855Z,6.63
2019-01-05T22:00:29.420Z,6.30
2019-01-05T22:02:14.304Z,4.13
2019-01-05T22:03:58.317Z,5.77
2019-01-05T22:05:38.345Z,3.27
2019-01-05T22:07:33.629Z,2.80
2019-01-05T22:10:13.205Z,4.07
2019-01-05T22:12:01.265Z,5.13
2019-01-05T22:14:42.146Z,2.83
2019-01-05T22:16:21.040Z,2.83
2019-01-05T22:18:03.248Z,3.37
2019-01-05T22:19:42.101Z,4.00
2019-01-05T22:21:21.314Z,3.13
2019-01-05T22:23:00.968Z,3.27
2019-01-05T22:24:43.896Z,4.00
2019-01-05T22:26:28.969Z,3.13
2019-01-05T22:28:09.160Z,2.73
2019-01-05T22:29:56.147Z,4.07
2019-01-05T22:32:11.536Z,4.60
2019-01-05T22:33:50.432Z,3.87
2019-01-05T22:35:35.458Z,3.67
2019-01-05T22:39:20.169Z,5.07
2019-01-05T22:41:00.988Z,2.50
2019-01-05T22:42:40.496Z,3.37
2019-01-05T22:45:23.903Z,2.30
2019-01-05T22:47:06.037Z,5.30
2019-01-05T22:48:43.728Z,3.23
2019-01-05T22:51:20.369Z,6.47
2019-01-05T22:54:05.425Z,2.87
2019-01-05T22:55:44.364Z,2.07
2019-01-05T23:03:36.220Z,2.47
2019-01-05T23:05:14.301Z,3.37
2019-01-05T23:06:53.246Z,3.03
2019-01-05T23:09:32.727Z,1.83
2019-01-05T23:11:13.419Z,5.23
2019-01-05T23:12:52.270Z,2.10
2019-01-05T23:14:31.254Z,2.23
2019-01-05T23:16:10.024Z,3.40
2019-01-05T23:17:48.672Z,2.07
2019-01-05T23:20:34.710Z,2.47
2019-01-05T23:22:16.257Z,2.57
2019-01-05T23:23:52.917Z,3.83
2019-01-05T23:25:33.068Z,2.33
2019-01-05T23:27:11.831Z,4.50
2019-01-05T23:28:50.784Z,3.33
2019-01-05T23:31:27.305Z,3.20
2019-01-05T23:33:05.121Z,3.07
2019-01-05T23:34:46.231Z,3.43
2019-01-05T23:36:25.076Z,2.20
2019-01-05T23:38:04.041Z,5.53
2019-01-05T23:39:44.284Z,3.07
2019-01-05T23:41:23.178Z,2.37
2019-01-05T23:43:34.638Z,3.67
2019-01-05T23:45:15.699Z,2.50
2019-01-05T23:46:54.504Z,2.87
2019-01-05T23:48:33.662Z,1.77
2019-01-05T23:50:12.494Z,2.40
2019-01-05T23:52:49.999Z,3.10
2019-01-05T23:58:22.854Z,4.33
